sensor_id;sensor_type;location;lat;lon;timestamp;temperature;humidity
21318;DHT22;10818;50.830;6.524;2022-12-11T00:03:06;1.90;99.90
21318;DHT22;10818;50.830;6.524;2022-12-11T00:08:06;1.90;99.90
21318;DHT22;10818;50.830;6.524;2022-12-11T00:13:07;1.90;99.90
21318;DHT22;10818;50.830;6.524;2022-12-11T00:18:10;1.90;99.90
21318;DHT22;10818;50.830;6.524;2022-12-11T00:23:11;1.90;99.90
21318;DHT22;10818;50.830;6.524;2022-12-11T00:28:13;1.90;99.90
21318;DHT22;10818;50.830;6.524;2022-12-11T00:33:14;1.90;99.90
21318;DHT22;10818;50.830;6.524;2022-12-11T00:38:15;1.90;99.90
21318;DHT22;10818;50.830;6.524;2022-12-11T00:43:16;1.90;99.90
21318;DHT22;10818;50.830;6.524;2022-12-11T00:48:16;1.90;99.90
21318;DHT22;10818;50.830;6.524;2022-12-11T00:53:17;1.90;99.90
21318;DHT22;10818;50.830;6.524;2022-12-11T00:58:17;1.90;99.90
21318;DHT22;10818;50.830;6.524;2022-12-11T01:03:18;1.90;99.90
21318;DHT22;10818;50.830;6.524;2022-12-11T01:08:18;1.90;99.90
21318;DHT22;10818;50.830;6.524;2022-12-11T01:13:19;1.80;99.90
21318;DHT22;10818;50.830;6.524;2022-12-11T01:18:19;2.00;99.90
21318;DHT22;10818;50.830;6.524;2022-12-11T01:23:19;2.00;99.90
21318;DHT22;10818;50.830;6.524;2022-12-11T01:28:20;1.90;99.90
21318;DHT22;10818;50.830;6.524;2022-12-11T01:33:20;2.00;99.90
21318;DHT22;10818;50.830;6.524;2022-12-11T01:38:21;2.00;99.90
21318;DHT22;10818;50.830;6.524;2022-12-11T01:43:21;2.00;99.90
21318;DHT22;10818;50.830;6.524;2022-12-11T01:48:26;2.00;99.90
21318;DHT22;10818;50.830;6.524;2022-12-11T01:53:34;1.90;99.90
21318;DHT22;10818;50.830;6.524;2022-12-11T01:58:45;1.90;99.90
21318;DHT22;10818;50.830;6.524;2022-12-11T02:03:46;1.90;99.90
21318;DHT22;10818;50.830;6.524;2022-12-11T02:08:47;2.00;99.90
21318;DHT22;10818;50.830;6.524;2022-12-11T02:13:55;1.90;99.90
21318;DHT22;10818;50.830;6.524;2022-12-11T02:19:01;1.90;99.90
21318;DHT22;10818;50.830;6.524;2022-12-11T02:29:25;2.00;99.90
21318;DHT22;10818;50.830;6.524;2022-12-11T02:34:36;2.10;99.90
21318;DHT22;10818;50.830;6.524;2022-12-11T02:39:40;2.00;99.90
21318;DHT22;10818;50.830;6.524;2022-12-11T02:44:42;2.00;99.90
21318;DHT22;10818;50.830;6.524;2022-12-11T02:49:43;2.00;99.90
21318;DHT22;10818;50.830;6.524;2022-12-11T02:54:45;2.10;99.90
21318;DHT22;10818;50.830;6.524;2022-12-11T02:59:46;2.10;99.90
21318;DHT22;10818;50.830;6.524;2022-12-11T03:04:47;2.10;99.90
21318;DHT22;10818;50.830;6.524;2022-12-11T03:09:48;2.10;99.90
21318;DHT22;10818;50.830;6.524;2022-12-11T03:14:49;2.10;99.90
21318;DHT22;10818;50.830;6.524;2022-12-11T03:19:59;2.00;99.90
21318;DHT22;10818;50.830;6.524;2022-12-11T03:25:11;2.10;99.90
21318;DHT22;10818;50.830;6.524;2022-12-11T03:30:15;2.00;99.90
21318;DHT22;10818;50.830;6.524;2022-12-11T03:35:27;2.10;99.90
21318;DHT22;10818;50.830;6.524;2022-12-11T03:40:30;2.00;99.90
21318;DHT22;10818;50.830;6.524;2022-12-11T03:45:32;2.10;99.90
21318;DHT22;10818;50.830;6.524;2022-12-11T03:50:33;2.10;99.90
21318;DHT22;10818;50.830;6.524;2022-12-11T03:55:35;2.10;99.90
21318;DHT22;10818;50.830;6.524;2022-12-11T04:00:36;2.10;99.90
21318;DHT22;10818;50.830;6.524;2022-12-11T04:05:38;2.10;99.90
21318;DHT22;10818;50.830;6.524;2022-12-11T04:10:39;2.10;99.90
21318;DHT22;10818;50.830;6.524;2022-12-11T04:15:40;2.10;99.90
21318;DHT22;10818;50.830;6.524;2022-12-11T04:20:40;2.10;99.90
21318;DHT22;10818;50.830;6.524;2022-12-11T04:26:10;2.10;99.90
21318;DHT22;10818;50.830;6.524;2022-12-11T04:31:11;2.10;99.90
21318;DHT22;10818;50.830;6.524;2022-12-11T04:36:12;2.00;99.90
21318;DHT22;10818;50.830;6.524;2022-12-11T04:41:13;2.00;99.90
21318;DHT22;10818;50.830;6.524;2022-12-11T04:46:16;2.10;99.90
21318;DHT22;10818;50.830;6.524;2022-12-11T04:51:17;2.20;99.90
21318;DHT22;10818;50.830;6.524;2022-12-11T04:56:18;2.10;99.90
21318;DHT22;10818;50.830;6.524;2022-12-11T05:01:19;2.10;99.90
21318;DHT22;10818;50.830;6.524;2022-12-11T05:06:20;2.10;99.90
21318;DHT22;10818;50.830;6.524;2022-12-11T05:11:21;2.10;99.90
21318;DHT22;10818;50.830;6.524;2022-12-11T05:16:21;2.10;99.90
21318;DHT22;10818;50.830;6.524;2022-12-11T05:21:22;2.10;99.90
21318;DHT22;10818;50.830;6.524;2022-12-11T05:26:22;2.20;99.90
21318;DHT22;10818;50.830;6.524;2022-12-11T05:31:24;2.20;99.90
21318;DHT22;10818;50.830;6.524;2022-12-11T05:36:25;2.20;99.90
21318;DHT22;10818;50.830;6.524;2022-12-11T05:41:27;2.10;99.90
21318;DHT22;10818;50.830;6.524;2022-12-11T05:46:28;2.00;99.90
21318;DHT22;10818;50.830;6.524;2022-12-11T05:51:29;2.00;99.90
21318;DHT22;10818;50.830;6.524;2022-12-11T05:56:31;2.10;99.90
21318;DHT22;10818;50.830;6.524;2022-12-11T06:01:39;2.10;99.90
21318;DHT22;10818;50.830;6.524;2022-12-11T06:06:40;2.00;99.90
21318;DHT22;10818;50.830;6.524;2022-12-11T06:11:41;2.00;99.90
21318;DHT22;10818;50.830;6.524;2022-12-11T06:16:41;1.90;99.90
21318;DHT22;10818;50.830;6.524;2022-12-11T06:21:42;2.00;99.90
21318;DHT22;10818;50.830;6.524;2022-12-11T06:26:43;2.10;99.90
21318;DHT22;10818;50.830;6.524;2022-12-11T06:31:43;2.00;99.90
21318;DHT22;10818;50.830;6.524;2022-12-11T06:36:44;1.90;99.90
21318;DHT22;10818;50.830;6.524;2022-12-11T06:41:44;1.80;99.90
21318;DHT22;10818;50.830;6.524;2022-12-11T06:46:45;1.80;99.90
21318;DHT22;10818;50.830;6.524;2022-12-11T06:51:45;1.80;99.90
21318;DHT22;10818;50.830;6.524;2022-12-11T06:56:45;1.80;99.90
21318;DHT22;10818;50.830;6.524;2022-12-11T07:01:46;1.90;99.90
21318;DHT22;10818;50.830;6.524;2022-12-11T07:06:46;1.90;99.90
21318;DHT22;10818;50.830;6.524;2022-12-11T07:11:48;1.80;99.90
21318;DHT22;10818;50.830;6.524;2022-12-11T07:16:49;1.80;99.90
21318;DHT22;10818;50.830;6.524;2022-12-11T07:21:50;1.90;99.90
21318;DHT22;10818;50.830;6.524;2022-12-11T07:26:50;1.90;99.90
21318;DHT22;10818;50.830;6.524;2022-12-11T07:31:52;1.80;99.90
21318;DHT22;10818;50.830;6.524;2022-12-11T07:36:52;1.80;99.90
21318;DHT22;10818;50.830;6.524;2022-12-11T07:41:53;1.60;99.90
21318;DHT22;10818;50.830;6.524;2022-12-11T07:46:53;1.80;99.90
21318;DHT22;10818;50.830;6.524;2022-12-11T07:51:54;1.80;99.90
21318;DHT22;10818;50.830;6.524;2022-12-11T07:56:54;1.90;99.90
21318;DHT22;10818;50.830;6.524;2022-12-11T08:01:55;2.00;99.90
21318;DHT22;10818;50.830;6.524;2022-12-11T08:06:56;1.80;99.90
21318;DHT22;10818;50.830;6.524;2022-12-11T08:11:56;2.10;99.90
21318;DHT22;10818;50.830;6.524;2022-12-11T08:16:57;2.10;99.90
21318;DHT22;10818;50.830;6.524;2022-12-11T08:21:59;2.10;99.90
21318;DHT22;10818;50.830;6.524;2022-12-11T08:26:59;2.10;99.90
21318;DHT22;10818;50.830;6.524;2022-12-11T08:32:00;2.20;99.90
21318;DHT22;10818;50.830;6.524;2022-12-11T08:37:01;2.30;99.90
21318;DHT22;10818;50.830;6.524;2022-12-11T08:42:01;2.30;99.90
21318;DHT22;10818;50.830;6.524;2022-12-11T08:47:02;2.40;99.90
21318;DHT22;10818;50.830;6.524;2022-12-11T08:52:03;2.30;99.90
21318;DHT22;10818;50.830;6.524;2022-12-11T08:57:04;2.60;99.90
21318;DHT22;10818;50.830;6.524;2022-12-11T09:02:04;2.70;99.90
21318;DHT22;10818;50.830;6.524;2022-12-11T09:07:05;2.80;99.90
21318;DHT22;10818;50.830;6.524;2022-12-11T09:12:05;2.80;99.90
21318;DHT22;10818;50.830;6.524;2022-12-11T09:17:06;2.80;99.90
21318;DHT22;10818;50.830;6.524;2022-12-11T09:22:08;2.60;99.90
21318;DHT22;10818;50.830;6.524;2022-12-11T09:27:10;2.70;99.90
21318;DHT22;10818;50.830;6.524;2022-12-11T09:32:10;2.80;99.90
21318;DHT22;10818;50.830;6.524;2022-12-11T09:37:11;2.80;99.90
21318;DHT22;10818;50.830;6.524;2022-12-11T09:47:31;2.90;99.90
21318;DHT22;10818;50.830;6.524;2022-12-11T09:52:38;3.20;99.90
21318;DHT22;10818;50.830;6.524;2022-12-11T10:03:42;2.90;99.90
21318;DHT22;10818;50.830;6.524;2022-12-11T10:08:26;3.20;99.90
21318;DHT22;10818;50.830;6.524;2022-12-11T10:18:34;3.30;99.90
21318;DHT22;10818;50.830;6.524;2022-12-11T10:28:42;3.20;99.90
21318;DHT22;10818;50.830;6.524;2022-12-11T10:33:59;3.10;99.90
21318;DHT22;10818;50.830;6.524;2022-12-11T10:39:00;3.30;99.90
21318;DHT22;10818;50.830;6.524;2022-12-11T10:44:11;3.40;99.90
21318;DHT22;10818;50.830;6.524;2022-12-11T10:49:20;3.50;99.90
21318;DHT22;10818;50.830;6.524;2022-12-11T10:59:26;3.80;99.90
21318;DHT22;10818;50.830;6.524;2022-12-11T11:04:34;3.70;99.90
21318;DHT22;10818;50.830;6.524;2022-12-11T11:09:35;4.20;99.90
21318;DHT22;10818;50.830;6.524;2022-12-11T11:14:36;4.40;99.90
21318;DHT22;10818;50.830;6.524;2022-12-11T11:19:37;4.70;99.90
21318;DHT22;10818;50.830;6.524;2022-12-11T11:24:42;4.90;99.90
21318;DHT22;10818;50.830;6.524;2022-12-11T11:29:43;4.90;99.90
21318;DHT22;10818;50.830;6.524;2022-12-11T11:34:44;4.90;99.90
21318;DHT22;10818;50.830;6.524;2022-12-11T11:39:44;4.30;99.90
21318;DHT22;10818;50.830;6.524;2022-12-11T11:44:56;3.60;99.90
21318;DHT22;10818;50.830;6.524;2022-12-11T11:50:05;3.20;99.90
21318;DHT22;10818;50.830;6.524;2022-12-11T11:55:10;3.00;99.90
21318;DHT22;10818;50.830;6.524;2022-12-11T12:00:23;3.30;99.90
21318;DHT22;10818;50.830;6.524;2022-12-11T12:05:25;3.60;99.90
21318;DHT22;10818;50.830;6.524;2022-12-11T12:10:33;3.80;99.90
21318;DHT22;10818;50.830;6.524;2022-12-11T12:15:40;3.70;99.90
21318;DHT22;10818;50.830;6.524;2022-12-11T12:21:45;3.80;99.90
21318;DHT22;10818;50.830;6.524;2022-12-11T12:26:27;3.80;99.90
21318;DHT22;10818;50.830;6.524;2022-12-11T12:31:41;3.50;99.90
21318;DHT22;10818;50.830;6.524;2022-12-11T12:42:07;3.70;99.90
21318;DHT22;10818;50.830;6.524;2022-12-11T12:47:11;3.60;99.90
21318;DHT22;10818;50.830;6.524;2022-12-11T12:52:14;3.80;99.90
21318;DHT22;10818;50.830;6.524;2022-12-11T12:57:15;3.70;99.90
21318;DHT22;10818;50.830;6.524;2022-12-11T13:02:16;3.50;99.90
21318;DHT22;10818;50.830;6.524;2022-12-11T13:07:20;3.50;99.90
21318;DHT22;10818;50.830;6.524;2022-12-11T13:12:30;3.50;99.90
21318;DHT22;10818;50.830;6.524;2022-12-11T13:17:36;3.50;99.90
21318;DHT22;10818;50.830;6.524;2022-12-11T13:22:45;3.50;99.90
21318;DHT22;10818;50.830;6.524;2022-12-11T13:27:46;3.60;99.90
21318;DHT22;10818;50.830;6.524;2022-12-11T13:32:59;3.60;99.90
21318;DHT22;10818;50.830;6.524;2022-12-11T13:38:03;4.00;99.90
21318;DHT22;10818;50.830;6.524;2022-12-11T13:43:26;4.00;99.90
21318;DHT22;10818;50.830;6.524;2022-12-11T13:48:32;4.00;99.90
21318;DHT22;10818;50.830;6.524;2022-12-11T13:53:33;4.00;99.90
21318;DHT22;10818;50.830;6.524;2022-12-11T13:58:36;3.80;99.90
21318;DHT22;10818;50.830;6.524;2022-12-11T14:04:20;3.80;99.90
21318;DHT22;10818;50.830;6.524;2022-12-11T14:09:01;3.70;99.90
21318;DHT22;10818;50.830;6.524;2022-12-11T14:14:03;3.60;99.90
21318;DHT22;10818;50.830;6.524;2022-12-11T14:19:06;3.40;99.90
21318;DHT22;10818;50.830;6.524;2022-12-11T14:24:11;3.40;99.90
21318;DHT22;10818;50.830;6.524;2022-12-11T14:29:22;3.30;99.90
21318;DHT22;10818;50.830;6.524;2022-12-11T14:34:34;3.50;99.90
21318;DHT22;10818;50.830;6.524;2022-12-11T14:55:00;3.40;99.90
21318;DHT22;10818;50.830;6.524;2022-12-11T15:00:03;3.30;99.90
21318;DHT22;10818;50.830;6.524;2022-12-11T15:05:09;3.20;99.90
21318;DHT22;10818;50.830;6.524;2022-12-11T15:10:24;3.00;99.90
21318;DHT22;10818;50.830;6.524;2022-12-11T15:15:25;2.90;99.90
21318;DHT22;10818;50.830;6.524;2022-12-11T15:20:27;2.70;99.90
21318;DHT22;10818;50.830;6.524;2022-12-11T15:25:28;2.80;99.90
21318;DHT22;10818;50.830;6.524;2022-12-11T15:30:31;2.70;99.90
21318;DHT22;10818;50.830;6.524;2022-12-11T15:35:32;2.70;99.90
21318;DHT22;10818;50.830;6.524;2022-12-11T15:40:32;2.70;99.90
21318;DHT22;10818;50.830;6.524;2022-12-11T15:45:32;2.70;99.90
21318;DHT22;10818;50.830;6.524;2022-12-11T15:50:33;2.70;99.90
21318;DHT22;10818;50.830;6.524;2022-12-11T15:55:33;2.60;99.90
21318;DHT22;10818;50.830;6.524;2022-12-11T16:00:35;2.60;99.90
21318;DHT22;10818;50.830;6.524;2022-12-11T16:05:36;2.60;99.90
21318;DHT22;10818;50.830;6.524;2022-12-11T16:10:36;2.60;99.90
21318;DHT22;10818;50.830;6.524;2022-12-11T16:15:37;2.60;99.90
21318;DHT22;10818;50.830;6.524;2022-12-11T16:20:39;2.60;99.90
21318;DHT22;10818;50.830;6.524;2022-12-11T16:25:40;2.60;99.90
21318;DHT22;10818;50.830;6.524;2022-12-11T16:30:41;2.50;99.90
21318;DHT22;10818;50.830;6.524;2022-12-11T16:35:42;2.20;99.90
21318;DHT22;10818;50.830;6.524;2022-12-11T16:40:43;1.80;99.90
21318;DHT22;10818;50.830;6.524;2022-12-11T16:45:44;1.60;99.90
21318;DHT22;10818;50.830;6.524;2022-12-11T16:50:45;1.30;99.90
21318;DHT22;10818;50.830;6.524;2022-12-11T16:55:45;1.10;99.90
21318;DHT22;10818;50.830;6.524;2022-12-11T17:00:46;1.00;99.90
21318;DHT22;10818;50.830;6.524;2022-12-11T17:05:47;0.80;99.90
21318;DHT22;10818;50.830;6.524;2022-12-11T17:10:48;0.60;99.90
21318;DHT22;10818;50.830;6.524;2022-12-11T17:15:48;0.50;99.90
21318;DHT22;10818;50.830;6.524;2022-12-11T17:20:48;0.50;99.90
21318;DHT22;10818;50.830;6.524;2022-12-11T17:25:49;0.30;99.90
21318;DHT22;10818;50.830;6.524;2022-12-11T17:30:49;0.20;99.90
21318;DHT22;10818;50.830;6.524;2022-12-11T17:35:51;0.20;99.90
21318;DHT22;10818;50.830;6.524;2022-12-11T17:40:52;0.20;99.90
21318;DHT22;10818;50.830;6.524;2022-12-11T17:45:52;0.20;99.90
21318;DHT22;10818;50.830;6.524;2022-12-11T17:50:54;0.30;99.90
21318;DHT22;10818;50.830;6.524;2022-12-11T17:55:58;0.50;99.90
21318;DHT22;10818;50.830;6.524;2022-12-11T18:00:58;0.60;99.90
21318;DHT22;10818;50.830;6.524;2022-12-11T18:06:02;0.90;99.90
21318;DHT22;10818;50.830;6.524;2022-12-11T18:11:07;1.00;99.90
21318;DHT22;10818;50.830;6.524;2022-12-11T18:16:12;1.00;99.90
21318;DHT22;10818;50.830;6.524;2022-12-11T18:21:14;1.10;99.90
21318;DHT22;10818;50.830;6.524;2022-12-11T18:26:15;1.00;99.90
21318;DHT22;10818;50.830;6.524;2022-12-11T18:31:18;1.00;99.90
21318;DHT22;10818;50.830;6.524;2022-12-11T18:36:18;1.00;99.90
21318;DHT22;10818;50.830;6.524;2022-12-11T18:41:19;1.00;99.90
21318;DHT22;10818;50.830;6.524;2022-12-11T18:46:20;1.00;99.90
21318;DHT22;10818;50.830;6.524;2022-12-11T18:51:20;0.90;99.90
21318;DHT22;10818;50.830;6.524;2022-12-11T18:56:24;1.00;99.90
21318;DHT22;10818;50.830;6.524;2022-12-11T19:01:25;0.90;99.90
21318;DHT22;10818;50.830;6.524;2022-12-11T19:06:26;0.90;99.90
21318;DHT22;10818;50.830;6.524;2022-12-11T19:11:29;0.80;99.90
21318;DHT22;10818;50.830;6.524;2022-12-11T19:16:31;0.80;99.90
21318;DHT22;10818;50.830;6.524;2022-12-11T19:21:32;0.70;99.90
21318;DHT22;10818;50.830;6.524;2022-12-11T19:26:34;0.70;99.90
21318;DHT22;10818;50.830;6.524;2022-12-11T19:31:35;0.70;99.90
21318;DHT22;10818;50.830;6.524;2022-12-11T19:36:35;0.80;99.90
21318;DHT22;10818;50.830;6.524;2022-12-11T19:41:36;0.70;99.90
21318;DHT22;10818;50.830;6.524;2022-12-11T19:46:37;0.90;99.90
21318;DHT22;10818;50.830;6.524;2022-12-11T19:51:38;0.80;99.90
21318;DHT22;10818;50.830;6.524;2022-12-11T19:56:39;0.90;99.90
21318;DHT22;10818;50.830;6.524;2022-12-11T20:01:40;0.90;99.90
21318;DHT22;10818;50.830;6.524;2022-12-11T20:06:41;0.80;99.90
21318;DHT22;10818;50.830;6.524;2022-12-11T20:11:42;0.80;99.90
21318;DHT22;10818;50.830;6.524;2022-12-11T20:16:43;0.80;99.90
21318;DHT22;10818;50.830;6.524;2022-12-11T20:21:43;0.80;99.90
21318;DHT22;10818;50.830;6.524;2022-12-11T20:26:44;0.60;99.90
21318;DHT22;10818;50.830;6.524;2022-12-11T20:31:47;0.60;99.90
21318;DHT22;10818;50.830;6.524;2022-12-11T20:36:50;0.60;99.90
21318;DHT22;10818;50.830;6.524;2022-12-11T20:41:50;0.50;99.90
21318;DHT22;10818;50.830;6.524;2022-12-11T20:46:51;0.50;99.90
21318;DHT22;10818;50.830;6.524;2022-12-11T20:51:51;0.40;99.90
21318;DHT22;10818;50.830;6.524;2022-12-11T20:56:51;0.30;99.90
21318;DHT22;10818;50.830;6.524;2022-12-11T21:01:52;0.30;99.90
21318;DHT22;10818;50.830;6.524;2022-12-11T21:06:53;0.40;99.90
21318;DHT22;10818;50.830;6.524;2022-12-11T21:11:57;0.30;99.90
21318;DHT22;10818;50.830;6.524;2022-12-11T21:16:57;0.20;99.90
21318;DHT22;10818;50.830;6.524;2022-12-11T21:21:58;0.10;99.90
21318;DHT22;10818;50.830;6.524;2022-12-11T21:26:58;0.00;99.90
21318;DHT22;10818;50.830;6.524;2022-12-11T21:31:59;0.00;99.90
21318;DHT22;10818;50.830;6.524;2022-12-11T21:36:59;-0.20;99.90
21318;DHT22;10818;50.830;6.524;2022-12-11T21:42:00;-0.10;99.90
21318;DHT22;10818;50.830;6.524;2022-12-11T21:47:00;0.10;99.90
21318;DHT22;10818;50.830;6.524;2022-12-11T21:52:01;0.20;99.90
21318;DHT22;10818;50.830;6.524;2022-12-11T21:57:02;0.20;99.90
21318;DHT22;10818;50.830;6.524;2022-12-11T22:02:02;0.20;99.90
21318;DHT22;10818;50.830;6.524;2022-12-11T22:07:03;0.30;99.90
21318;DHT22;10818;50.830;6.524;2022-12-11T22:12:03;0.40;99.90
21318;DHT22;10818;50.830;6.524;2022-12-11T22:17:04;0.50;99.90
21318;DHT22;10818;50.830;6.524;2022-12-11T22:22:04;0.50;99.90
21318;DHT22;10818;50.830;6.524;2022-12-11T22:27:05;0.60;99.90
21318;DHT22;10818;50.830;6.524;2022-12-11T22:32:06;0.70;99.90
21318;DHT22;10818;50.830;6.524;2022-12-11T22:37:06;0.70;99.90
21318;DHT22;10818;50.830;6.524;2022-12-11T22:42:07;0.60;99.90
21318;DHT22;10818;50.830;6.524;2022-12-11T22:47:07;0.70;99.90
21318;DHT22;10818;50.830;6.524;2022-12-11T22:52:07;0.80;99.90
21318;DHT22;10818;50.830;6.524;2022-12-11T22:57:09;0.80;99.90
21318;DHT22;10818;50.830;6.524;2022-12-11T23:02:09;0.80;99.90
21318;DHT22;10818;50.830;6.524;2022-12-11T23:07:10;0.80;99.90
21318;DHT22;10818;50.830;6.524;2022-12-11T23:12:10;0.80;99.90
21318;DHT22;10818;50.830;6.524;2022-12-11T23:17:11;0.80;99.90
21318;DHT22;10818;50.830;6.524;2022-12-11T23:22:12;0.80;99.90
21318;DHT22;10818;50.830;6.524;2022-12-11T23:27:12;0.90;99.90
21318;DHT22;10818;50.830;6.524;2022-12-11T23:32:13;0.90;99.90
21318;DHT22;10818;50.830;6.524;2022-12-11T23:37:13;0.90;99.90
21318;DHT22;10818;50.830;6.524;2022-12-11T23:42:14;1.00;99.90
21318;DHT22;10818;50.830;6.524;2022-12-11T23:47:15;1.00;99.90
21318;DHT22;10818;50.830;6.524;2022-12-11T23:52:15;0.90;99.90
21318;DHT22;10818;50.830;6.524;2022-12-11T23:57:16;1.00;99.90
